»·PEaware :: N132BU KSNA-L71

N132BU :: KSNA-L71

FLIGHT INFORMATION

Flight Status: Arrived
Operator: Privately registered:
United States
More flights under this callsign
Pilot: Oliver B. (21155)
Aircraft: PIPER PA-46-310/350P MALIBU MIRAGE
(PA46)
More flights by this aircraft type
Origin: KSNA John Wayne-Orange Co
United States
Destination: L71 California City Mun
United States
More flights between these airports :: More routes between these airports
Route: +SLI V459 BERRI V201 PMD GOVVE
File this flight plan on PilotEdge
Remarks:
Altitude:
(Current/Filed)
12,000ft
Speed:
(Current/Filed)
170kts
Departed: 09-Jun-19 12:00 PM
Arrived: 09-Jun-19 12:51 PM
Distance/Time
Traveled:
89nm/0:51
Distance/Time
To Go:
Arrived

Flight Plot

Page will automatically refresh every two minutes.

Flight plan parsing failed; only flown route is shown


Map Options




Map Legend


Flown Route
Filed Route
Departure Airport
Arrival Airport
Navaid (VOR, NDB)
Fix

Horizontal Profiles

Position Reports

Time Latitude Longitude Heading Altitude Ground
Speed
09-Jun-19 11:42 33.675127 -117.871693 220 59ft 0kts
09-Jun-19 11:43 33.675127 -117.871693 220 59ft 0kts
09-Jun-19 11:44 33.675127 -117.871693 220 59ft 0kts
09-Jun-19 11:45 33.675126 -117.871694 220 59ft 0kts
09-Jun-19 11:46 33.675125 -117.871695 220 59ft 0kts
09-Jun-19 11:47 33.675124 -117.871696 220 59ft 0kts
09-Jun-19 11:48 33.675124 -117.871696 220 59ft 0kts
09-Jun-19 11:49 33.675122 -117.871698 220 59ft 0kts
09-Jun-19 11:50 33.675089 -117.871731 220 59ft 0kts
09-Jun-19 11:51 33.675089 -117.871731 220 59ft 0kts
09-Jun-19 11:52 33.675089 -117.871731 220 59ft 0kts
09-Jun-19 11:53 33.675089 -117.871731 220 59ft 0kts
09-Jun-19 11:54 33.675088 -117.871732 220 59ft 0kts
09-Jun-19 11:55 33.674950 -117.870832 24 59ft 7kts
09-Jun-19 11:56 33.676630 -117.869812 28 59ft 8kts
09-Jun-19 11:57 33.680832 -117.866487 114 59ft 0kts
09-Jun-19 11:58 33.680832 -117.866485 114 59ft 0kts
09-Jun-19 11:59 33.668847 -117.873474 211 310ft 101kts
09-Jun-19 12:00 33.648325 -117.902473 232 1809ft 122kts
09-Jun-19 12:01 33.626908 -117.935425 233 3452ft 125kts
09-Jun-19 12:02 33.602888 -117.969018 231 4921ft 139kts
09-Jun-19 12:03 33.578760 -118.006815 232 6266ft 151kts
09-Jun-19 12:04 33.554603 -118.047901 232 7574ft 164kts
09-Jun-19 12:05 33.531023 -118.098283 272 8186ft 202kts
09-Jun-19 12:06 33.568254 -118.121251 19 8026ft 200kts
09-Jun-19 12:07 33.619777 -118.103233 19 8003ft 198kts
09-Jun-19 12:08 33.672411 -118.088253 15 8408ft 191kts
09-Jun-19 12:09 33.725086 -118.077901 11 9062ft 193kts
09-Jun-19 12:10 33.778104 -118.073053 4 9705ft 197kts
09-Jun-19 12:11 33.821215 -118.080499 344 10235ft 201kts
09-Jun-19 12:12 33.821215 -118.080499 344 10235ft 201kts
09-Jun-19 12:13 33.821215 -118.080499 344 10235ft 201kts
09-Jun-19 12:14 33.821215 -118.080499 344 10235ft 201kts
09-Jun-19 12:15 33.860253 -118.099337 337 10726ft 202kts
09-Jun-19 12:16 33.911306 -118.128242 335 11399ft 206kts
09-Jun-19 12:17 33.952987 -118.152237 335 11890ft 205kts
09-Jun-19 12:18 34.006495 -118.183094 335 11983ft 221kts
09-Jun-19 12:19 34.060556 -118.214314 335 11974ft 221kts
09-Jun-19 12:20 34.116139 -118.246500 335 11981ft 223kts
09-Jun-19 12:21 34.171668 -118.278644 335 11995ft 220kts
09-Jun-19 12:22 34.229584 -118.274663 22 12015ft 217kts
09-Jun-19 12:23 34.285067 -118.247158 25 12015ft 214kts
09-Jun-19 12:24 34.339529 -118.218566 26 12035ft 213kts
09-Jun-19 12:25 34.393774 -118.189905 26 12063ft 212kts
09-Jun-19 12:26 34.448049 -118.161189 26 12093ft 212kts
09-Jun-19 12:27 34.502415 -118.132373 26 12125ft 217kts
09-Jun-19 12:28 34.558321 -118.102702 25 11993ft 220kts
09-Jun-19 12:29 34.613980 -118.073254 22 12000ft 219kts
09-Jun-19 12:30 34.668736 -118.098886 324 12002ft 220kts
09-Jun-19 12:31 34.717769 -118.144012 323 11996ft 224kts
09-Jun-19 12:32 34.767162 -118.189991 322 11996ft 224kts
09-Jun-19 12:33 34.816139 -118.235634 322 12003ft 221kts
09-Jun-19 12:34 34.864714 -118.281045 322 12021ft 218kts
09-Jun-19 12:35 34.912961 -118.326149 322 12041ft 222kts
09-Jun-19 12:36 34.961287 -118.372639 322 12056ft 223kts
09-Jun-19 12:37 35.008532 -118.362545 74 11741ft 201kts
09-Jun-19 12:38 35.018876 -118.296442 82 11420ft 198kts
09-Jun-19 12:39 35.027879 -118.230460 82 10994ft 200kts
09-Jun-19 12:40 35.036807 -118.163478 82 10325ft 198kts
09-Jun-19 12:41 35.045333 -118.097199 82 9684ft 199kts
09-Jun-19 12:42 35.053648 -118.030749 81 9024ft 196kts
09-Jun-19 12:43 35.061437 -117.965314 77 8355ft 193kts
09-Jun-19 12:44 35.103796 -117.950126 337 7404ft 183kts
09-Jun-19 12:45 35.149724 -117.974218 344 6248ft 187kts
09-Jun-19 12:46 35.151112 -118.024171 243 3776ft 171kts
09-Jun-19 12:48 35.140811 -118.068813 330 3445ft 139kts
09-Jun-19 12:49 35.159001 -118.037808 72 3247ft 138kts
09-Jun-19 12:50 35.165320 -117.998486 128 2993ft 112kts
09-Jun-19 12:51 35.151681 -118.014694 235 2458ft 0kts

Navigation Log

Ident Type
Flight plan parsing failed, navigation log unavailable